createdAt,value
2023-02-05T00:00:00.384Z,0.9
2023-02-05T00:01:00.423Z,0.9
2023-02-05T00:02:00.388Z,0.9
2023-02-05T00:03:00.403Z,0.9
2023-02-05T00:04:00.351Z,0.9
2023-02-05T00:05:00.392Z,0.9
2023-02-05T00:06:00.382Z,0.9
2023-02-05T00:07:00.359Z,0.9
2023-02-05T00:08:00.380Z,0.9
2023-02-05T00:09:00.364Z,0.9
2023-02-05T00:10:00.365Z,0.9
2023-02-05T00:11:00.385Z,1
2023-02-05T00:12:00.366Z,1
2023-02-05T00:13:00.360Z,1
2023-02-05T00:14:00.403Z,1
2023-02-05T00:15:00.376Z,1
2023-02-05T00:16:00.402Z,1.1
2023-02-05T00:17:00.367Z,1.1
2023-02-05T00:18:00.387Z,1.1
2023-02-05T00:19:00.373Z,1.1
2023-02-05T00:20:00.391Z,1.1
2023-02-05T00:21:00.392Z,1.1
2023-02-05T00:22:00.378Z,1.1
2023-02-05T00:23:00.391Z,1.1
2023-02-05T00:24:00.374Z,1.1
2023-02-05T00:25:00.387Z,1.1
2023-02-05T00:26:00.418Z,1.1
2023-02-05T00:27:00.401Z,1.1
2023-02-05T00:28:00.464Z,1.2
2023-02-05T00:29:00.392Z,1.2
2023-02-05T00:30:00.379Z,1.2
2023-02-05T00:31:00.567Z,1.2
2023-02-05T00:32:00.385Z,1.2
2023-02-05T00:33:00.387Z,1.2
2023-02-05T00:34:00.407Z,1.2
2023-02-05T00:35:00.413Z,1.2
2023-02-05T00:36:00.408Z,1.2
2023-02-05T00:37:00.401Z,1.2
2023-02-05T00:38:00.389Z,1.2
2023-02-05T00:39:00.412Z,1.2
2023-02-05T00:40:00.392Z,1.2
2023-02-05T00:41:00.419Z,1.2
2023-02-05T00:42:00.400Z,1.2
2023-02-05T00:43:00.395Z,1.2
2023-02-05T00:44:00.472Z,1.2
2023-02-05T00:45:00.394Z,1.2
2023-02-05T00:46:00.456Z,1.2
2023-02-05T00:47:00.399Z,1.2
2023-02-05T00:48:00.402Z,1.2
2023-02-05T00:49:00.403Z,1.3
2023-02-05T00:50:00.617Z,1.2
2023-02-05T00:51:00.478Z,1.3
2023-02-05T00:52:00.419Z,1.3
2023-02-05T00:53:00.562Z,1.3
2023-02-05T00:54:00.422Z,1.3
2023-02-05T00:55:00.438Z,1.3
2023-02-05T00:56:00.486Z,1.3
2023-02-05T00:57:00.417Z,1.3
2023-02-05T00:58:00.409Z,1.3
2023-02-05T00:59:00.440Z,1.4
2023-02-05T01:00:00.414Z,1.4
2023-02-05T01:01:00.439Z,1.4
2023-02-05T01:02:00.431Z,1.4
2023-02-05T01:03:00.436Z,1.4
2023-02-05T01:04:00.435Z,1.4
2023-02-05T01:05:00.442Z,1.4
2023-02-05T01:06:00.457Z,1.4
2023-02-05T01:07:00.433Z,1.4
2023-02-05T01:08:00.451Z,1.4
2023-02-05T01:09:00.430Z,1.4
2023-02-05T01:10:00.436Z,1.4
2023-02-05T01:11:00.448Z,1.5
2023-02-05T01:12:00.424Z,1.5
2023-02-05T01:13:00.461Z,1.5
2023-02-05T01:14:00.500Z,1.5
2023-02-05T01:15:00.433Z,1.5
2023-02-05T01:16:00.497Z,1.5
2023-02-05T01:17:00.432Z,1.5
2023-02-05T01:18:00.452Z,1.6
2023-02-05T01:19:00.448Z,1.6
2023-02-05T01:20:00.437Z,1.6
2023-02-05T01:21:00.461Z,1.6
2023-02-05T01:22:00.442Z,1.6
2023-02-05T01:23:00.456Z,1.6
2023-02-05T01:24:00.461Z,1.6
2023-02-05T01:25:00.456Z,1.6
2023-02-05T01:26:00.465Z,1.6
2023-02-05T01:27:00.486Z,1.6
2023-02-05T01:28:00.471Z,1.6
2023-02-05T01:29:00.451Z,1.6
2023-02-05T01:30:00.477Z,1.6
2023-02-05T01:31:00.580Z,1.7
2023-02-05T01:32:00.453Z,1.7
2023-02-05T01:33:00.475Z,1.7
2023-02-05T01:34:00.466Z,1.7
2023-02-05T01:35:00.449Z,1.7
2023-02-05T01:36:00.453Z,1.8
2023-02-05T01:37:00.457Z,1.8
2023-02-05T01:38:00.490Z,1.8
2023-02-05T01:39:00.460Z,1.8
2023-02-05T01:40:00.486Z,1.8
2023-02-05T01:41:00.504Z,1.8
2023-02-05T01:42:00.459Z,1.8
2023-02-05T01:43:00.477Z,1.8
2023-02-05T01:44:00.471Z,1.8
2023-02-05T01:45:00.457Z,1.8
2023-02-05T01:46:00.563Z,1.8
2023-02-05T01:47:00.475Z,1.8
2023-02-05T01:48:00.499Z,1.8
2023-02-05T01:49:00.462Z,1.8
2023-02-05T01:50:00.472Z,1.8
2023-02-05T01:51:00.524Z,1.8
2023-02-05T01:52:00.462Z,1.8
2023-02-05T01:53:00.491Z,1.8
2023-02-05T01:54:00.462Z,1.8
2023-02-05T01:55:00.505Z,1.8
2023-02-05T01:56:00.494Z,1.8
2023-02-05T01:57:00.467Z,1.8
2023-02-05T01:58:00.498Z,1.8
2023-02-05T01:59:00.472Z,1.8
2023-02-05T02:00:00.518Z,1.7
2023-02-05T02:01:00.526Z,1.7
2023-02-05T02:02:00.475Z,1.7
2023-02-05T02:03:00.567Z,1.7
2023-02-05T02:04:00.508Z,1.7
2023-02-05T02:05:00.559Z,1.6
2023-02-05T02:06:00.484Z,1.6
2023-02-05T02:07:00.476Z,1.6
2023-02-05T02:08:00.475Z,1.6
2023-02-05T02:09:00.502Z,1.6
2023-02-05T02:10:00.550Z,1.6
2023-02-05T02:11:00.509Z,1.6
2023-02-05T02:12:00.493Z,1.6
2023-02-05T02:13:00.487Z,1.6
2023-02-05T02:14:00.524Z,1.6
2023-02-05T02:15:00.502Z,1.6
2023-02-05T02:16:00.644Z,1.6
2023-02-05T02:17:00.506Z,1.6
2023-02-05T02:18:00.489Z,1.6
2023-02-05T02:19:00.512Z,1.6
2023-02-05T02:20:00.514Z,1.6
2023-02-05T02:21:00.515Z,1.6
2023-02-05T02:22:00.510Z,1.6
2023-02-05T02:23:00.513Z,1.6
2023-02-05T02:24:00.515Z,1.6
2023-02-05T02:25:00.516Z,1.6
2023-02-05T02:26:00.508Z,1.6
2023-02-05T02:27:00.529Z,1.6
2023-02-05T02:28:00.582Z,1.6
2023-02-05T02:29:00.504Z,1.6
2023-02-05T02:30:00.505Z,1.6
2023-02-05T02:31:00.620Z,1.6
2023-02-05T02:32:00.528Z,1.6
2023-02-05T02:33:00.525Z,1.6
2023-02-05T02:34:00.506Z,1.6
2023-02-05T02:35:00.520Z,1.6
2023-02-05T02:36:00.527Z,1.6
2023-02-05T02:37:00.528Z,1.6
2023-02-05T02:38:00.533Z,1.6
2023-02-05T02:39:00.530Z,1.6
2023-02-05T02:40:00.526Z,1.6
2023-02-05T02:41:00.517Z,1.6
2023-02-05T02:42:00.547Z,1.6
2023-02-05T02:43:00.539Z,1.6
2023-02-05T02:44:00.523Z,1.6
2023-02-05T02:45:00.533Z,1.6
2023-02-05T02:46:00.543Z,1.6
2023-02-05T02:47:00.547Z,1.6
2023-02-05T02:48:00.530Z,1.6
2023-02-05T02:49:00.522Z,1.6
2023-02-05T02:50:00.530Z,1.6
2023-02-05T02:51:00.551Z,1.6
2023-02-05T02:52:00.559Z,1.6
2023-02-05T02:53:00.533Z,1.6
2023-02-05T02:54:00.547Z,1.5
2023-02-05T02:55:00.557Z,1.5
2023-02-05T02:56:00.553Z,1.4
2023-02-05T02:57:00.540Z,1.4
2023-02-05T02:58:00.556Z,1.4
2023-02-05T02:59:00.571Z,1.4
2023-02-05T03:00:00.566Z,1.4
2023-02-05T03:01:01.354Z,1.3
2023-02-05T03:02:01.290Z,1.3
2023-02-05T03:03:01.275Z,1.3
2023-02-05T03:04:01.371Z,1.3
2023-02-05T03:05:01.288Z,1.3
2023-02-05T03:06:01.292Z,1.3
2023-02-05T03:07:01.311Z,1.2
2023-02-05T03:08:01.293Z,1.2
2023-02-05T03:09:01.292Z,1.2
2023-02-05T03:10:01.337Z,1.2
2023-02-05T03:11:01.284Z,1.2
2023-02-05T03:12:01.291Z,1.2
2023-02-05T03:13:01.308Z,1.2
2023-02-05T03:14:01.285Z,1.2
2023-02-05T03:15:01.286Z,1.2
2023-02-05T03:16:01.316Z,1.2
2023-02-05T03:17:01.288Z,1.1
2023-02-05T03:18:01.334Z,1.1
2023-02-05T03:19:01.312Z,1.1
2023-02-05T03:20:01.299Z,1.1
2023-02-05T03:21:01.306Z,1.1
2023-02-05T03:22:01.295Z,1
2023-02-05T03:23:01.300Z,1
2023-02-05T03:24:01.321Z,1
2023-02-05T03:25:01.301Z,1
2023-02-05T03:26:01.335Z,1
2023-02-05T03:27:01.327Z,1
2023-02-05T03:28:01.409Z,1
2023-02-05T03:29:01.329Z,1
2023-02-05T03:30:01.329Z,1
2023-02-05T03:31:01.353Z,1
2023-02-05T03:32:01.304Z,0.9
2023-02-05T03:33:01.323Z,0.9
2023-02-05T03:34:01.307Z,0.9
2023-02-05T03:35:01.321Z,0.9
2023-02-05T03:36:01.318Z,0.9
2023-02-05T03:37:01.320Z,0.9
2023-02-05T03:38:01.312Z,0.9
2023-02-05T03:39:01.335Z,0.9
2023-02-05T03:40:01.322Z,0.8
2023-02-05T03:41:01.322Z,0.9
2023-02-05T03:42:01.336Z,0.9
2023-02-05T03:43:01.333Z,0.8
2023-02-05T03:44:01.339Z,0.8
2023-02-05T03:45:01.341Z,0.8
2023-02-05T03:46:01.358Z,0.8
2023-02-05T03:47:01.320Z,0.8
2023-02-05T03:48:01.321Z,0.8
2023-02-05T03:49:01.323Z,0.8
2023-02-05T03:50:01.375Z,0.8
2023-02-05T03:51:01.334Z,0.8
2023-02-05T03:52:01.335Z,0.8
2023-02-05T03:53:01.330Z,0.8
2023-02-05T03:54:01.333Z,0.8
2023-02-05T03:55:01.351Z,0.8
2023-02-05T03:56:01.330Z,0.8
2023-02-05T03:57:01.323Z,0.8
2023-02-05T03:58:01.343Z,0.8
2023-02-05T03:59:01.341Z,0.8
2023-02-05T04:00:01.371Z,0.8
2023-02-05T04:01:01.392Z,0.8
2023-02-05T04:02:01.357Z,0.8
2023-02-05T04:05:00.539Z,0.8
2023-02-05T04:06:00.411Z,0.8
2023-02-05T04:07:00.347Z,0.8
2023-02-05T04:08:00.371Z,0.8
2023-02-05T04:09:00.389Z,0.8
2023-02-05T04:10:00.377Z,0.9
2023-02-05T04:11:00.362Z,0.9
2023-02-05T04:12:00.374Z,0.9
2023-02-05T04:13:00.348Z,0.9
2023-02-05T04:14:00.365Z,0.9
2023-02-05T04:15:00.387Z,0.9
2023-02-05T04:16:00.374Z,0.9
2023-02-05T04:17:00.349Z,0.9
2023-02-05T04:18:00.377Z,0.9
2023-02-05T04:19:00.392Z,0.8
2023-02-05T04:20:00.410Z,0.9
2023-02-05T04:21:00.376Z,0.9
2023-02-05T04:22:00.387Z,0.9
2023-02-05T04:23:00.372Z,0.9
2023-02-05T04:24:00.400Z,0.9
2023-02-05T04:25:00.368Z,0.9
2023-02-05T04:26:00.389Z,0.9
2023-02-05T04:27:00.372Z,0.9
2023-02-05T04:28:00.445Z,0.9
2023-02-05T04:29:00.380Z,0.9
2023-02-05T04:30:00.438Z,0.9
2023-02-05T04:31:00.451Z,0.9
2023-02-05T04:32:00.384Z,0.9
2023-02-05T04:33:00.422Z,0.9
2023-02-05T04:34:00.395Z,0.9
2023-02-05T04:35:00.415Z,0.8
2023-02-05T04:36:00.432Z,0.8
2023-02-05T04:37:00.374Z,0.8
2023-02-05T04:38:00.376Z,0.8
2023-02-05T04:39:00.378Z,0.8
2023-02-05T04:40:00.402Z,0.8
2023-02-05T04:41:00.400Z,0.8
2023-02-05T04:42:00.402Z,0.8
2023-02-05T04:43:00.389Z,0.8
2023-02-05T04:44:00.411Z,0.8
2023-02-05T04:45:00.421Z,0.8
2023-02-05T04:46:00.440Z,0.8
2023-02-05T04:47:00.439Z,0.8
2023-02-05T04:48:00.410Z,0.8
2023-02-05T04:49:00.392Z,0.8
2023-02-05T04:50:00.403Z,0.8
2023-02-05T04:51:00.419Z,0.8
2023-02-05T04:52:00.426Z,0.8
2023-02-05T04:53:00.407Z,0.8
2023-02-05T04:54:00.419Z,0.7
2023-02-05T04:55:00.405Z,0.7
2023-02-05T04:56:00.400Z,0.6
2023-02-05T04:57:00.422Z,0.6
2023-02-05T04:58:00.401Z,0.6
2023-02-05T04:59:00.417Z,0.6
2023-02-05T05:00:00.795Z,0.6
2023-02-05T05:01:00.563Z,0.6
2023-02-05T05:02:00.438Z,0.5
2023-02-05T05:03:00.405Z,0.5
2023-02-05T05:04:00.423Z,0.5
2023-02-05T05:05:00.423Z,0.5
2023-02-05T05:06:00.426Z,0.5
2023-02-05T05:07:00.446Z,0.5
2023-02-05T05:08:00.418Z,0.4
2023-02-05T05:09:00.435Z,0.4
2023-02-05T05:10:00.439Z,0.4
2023-02-05T05:11:00.410Z,0.4
2023-02-05T05:12:00.415Z,0.4
2023-02-05T05:13:00.426Z,0.4
2023-02-05T05:14:00.427Z,0.4
2023-02-05T05:15:00.535Z,0.4
2023-02-05T05:16:00.518Z,0.4
2023-02-05T05:17:00.440Z,0.4
2023-02-05T05:18:00.444Z,0.4
2023-02-05T05:19:00.425Z,0.5
2023-02-05T05:20:00.485Z,0.4
2023-02-05T05:21:00.434Z,0.4
2023-02-05T05:22:00.429Z,0.4
2023-02-05T05:23:00.438Z,0.4
2023-02-05T05:24:00.446Z,0.4
2023-02-05T05:25:00.467Z,0.4
2023-02-05T05:26:01.150Z,0.4
2023-02-05T05:27:00.446Z,0.4
2023-02-05T05:28:00.490Z,0.4
2023-02-05T05:29:00.434Z,0.4
2023-02-05T05:30:00.450Z,0.4
2023-02-05T05:31:00.484Z,0.4
2023-02-05T05:32:00.441Z,0.4
2023-02-05T05:33:00.449Z,0.4
2023-02-05T05:34:00.433Z,0.4
2023-02-05T05:35:00.498Z,0.5
2023-02-05T05:36:00.436Z,0.4
2023-02-05T05:37:00.436Z,0.4
2023-02-05T05:38:00.448Z,0.4
2023-02-05T05:39:00.464Z,0.4
2023-02-05T05:40:00.474Z,0.4
2023-02-05T05:41:00.446Z,0.4
2023-02-05T05:42:00.459Z,0.4
2023-02-05T05:43:00.451Z,0.4
2023-02-05T05:44:00.451Z,0.4
2023-02-05T05:45:00.487Z,0.4
2023-02-05T05:46:00.600Z,0.4
2023-02-05T05:47:00.465Z,0.4
2023-02-05T05:48:00.467Z,0.4
2023-02-05T05:49:00.457Z,0.4
2023-02-05T05:50:00.513Z,0.4
2023-02-05T05:51:00.498Z,0.4
2023-02-05T05:52:00.449Z,0.5
2023-02-05T05:53:00.471Z,0.5
2023-02-05T05:54:00.478Z,0.5
2023-02-05T05:55:00.529Z,0.5
2023-02-05T05:56:00.464Z,0.5
2023-02-05T05:57:00.456Z,0.5
2023-02-05T05:58:00.475Z,0.5
2023-02-05T05:59:00.463Z,0.5
2023-02-05T06:00:00.515Z,0.6
2023-02-05T06:01:00.475Z,0.6
2023-02-05T06:02:00.461Z,0.6
2023-02-05T06:03:00.459Z,0.6
2023-02-05T06:04:02.932Z,0.6
2023-02-05T06:05:00.496Z,0.6
2023-02-05T06:06:00.487Z,0.6
2023-02-05T06:07:00.465Z,0.6
2023-02-05T06:08:00.465Z,0.6
2023-02-05T06:09:00.503Z,0.7
2023-02-05T06:10:00.512Z,0.7
2023-02-05T06:11:00.468Z,0.8
2023-02-05T06:12:00.473Z,0.8
2023-02-05T06:13:00.492Z,0.8
2023-02-05T06:14:00.469Z,0.8
2023-02-05T06:15:00.545Z,0.8
2023-02-05T06:16:00.522Z,0.8
2023-02-05T06:17:00.479Z,0.8
2023-02-05T06:18:00.491Z,0.8
2023-02-05T06:19:00.484Z,0.8
2023-02-05T06:20:00.531Z,0.8
2023-02-05T06:21:00.504Z,0.8
2023-02-05T06:22:00.476Z,0.8
2023-02-05T06:23:00.481Z,0.8
2023-02-05T06:24:00.519Z,0.9
2023-02-05T06:25:00.541Z,0.9
2023-02-05T06:26:00.515Z,0.9
2023-02-05T06:27:00.500Z,0.9
2023-02-05T06:28:00.514Z,0.9
2023-02-05T06:29:00.508Z,0.9
2023-02-05T06:30:00.522Z,0.9
2023-02-05T06:31:00.656Z,0.9
2023-02-05T06:32:00.574Z,0.9
2023-02-05T06:33:00.499Z,0.9
2023-02-05T06:34:00.514Z,0.9
2023-02-05T06:35:00.540Z,0.9
2023-02-05T06:36:00.525Z,0.9
2023-02-05T06:37:00.514Z,1
2023-02-05T06:38:00.516Z,1
2023-02-05T06:39:00.518Z,1
2023-02-05T06:40:00.513Z,1
2023-02-05T06:41:00.506Z,1
2023-02-05T06:42:00.520Z,1
2023-02-05T06:43:00.558Z,0.9
2023-02-05T06:44:00.525Z,0.9
2023-02-05T06:45:00.528Z,0.9
2023-02-05T06:46:00.708Z,0.9
2023-02-05T06:47:00.534Z,0.9
2023-02-05T06:48:00.536Z,0.9
2023-02-05T06:49:00.532Z,0.9
2023-02-05T06:50:00.555Z,0.9
2023-02-05T06:51:00.532Z,0.9
2023-02-05T06:52:00.531Z,0.9
2023-02-05T06:53:00.542Z,0.8
2023-02-05T06:54:00.554Z,0.8
2023-02-05T06:55:00.515Z,0.8
2023-02-05T06:56:00.536Z,0.8
2023-02-05T06:57:00.517Z,0.8
2023-02-05T06:58:00.518Z,0.8
2023-02-05T06:59:00.556Z,0.7
2023-02-05T07:00:00.543Z,0.7
2023-02-05T07:01:00.521Z,0.7
2023-02-05T07:02:00.601Z,0.7
2023-02-05T07:03:00.569Z,0.7
2023-02-05T07:04:00.544Z,0.7
2023-02-05T07:05:00.546Z,0.6
2023-02-05T07:06:00.533Z,0.6
2023-02-05T07:07:00.532Z,0.6
2023-02-05T07:08:00.529Z,0.6
2023-02-05T07:09:00.558Z,0.6
2023-02-05T07:10:00.550Z,0.6
2023-02-05T07:11:00.536Z,0.6
2023-02-05T07:12:00.540Z,0.6
2023-02-05T07:13:00.562Z,0.6
2023-02-05T07:14:00.564Z,0.6
2023-02-05T07:15:00.554Z,0.6
2023-02-05T07:16:00.614Z,0.6
2023-02-05T07:17:00.549Z,0.6
2023-02-05T07:18:00.546Z,0.6
2023-02-05T07:19:00.629Z,0.6
2023-02-05T07:20:00.658Z,0.6
2023-02-05T07:21:00.743Z,0.6
2023-02-05T07:22:00.724Z,0.7
2023-02-05T07:23:00.678Z,0.7
2023-02-05T07:24:00.788Z,0.7
2023-02-05T07:25:03.242Z,0.7
2023-02-05T07:26:00.817Z,0.7
2023-02-05T07:27:00.737Z,0.8
2023-02-05T07:28:00.835Z,0.8
2023-02-05T07:29:00.753Z,0.8
2023-02-05T07:30:00.840Z,0.8
2023-02-05T07:31:00.845Z,0.8
2023-02-05T07:32:00.836Z,0.8
2023-02-05T07:33:00.779Z,0.9
2023-02-05T07:34:00.763Z,0.9
2023-02-05T07:35:00.598Z,0.9
2023-02-05T07:36:00.652Z,0.9
2023-02-05T07:37:00.725Z,0.9
2023-02-05T07:38:00.709Z,0.9
2023-02-05T07:39:00.715Z,1
2023-02-05T07:40:00.632Z,1
2023-02-05T07:41:00.578Z,1.1
2023-02-05T07:42:00.573Z,1.1
2023-02-05T07:43:00.634Z,1.1
2023-02-05T07:44:00.622Z,1.1
2023-02-05T07:45:00.600Z,1.1
2023-02-05T07:46:00.597Z,1.2
2023-02-05T07:47:00.573Z,1.2
2023-02-05T07:48:00.625Z,1.2
2023-02-05T07:49:00.579Z,1.2
2023-02-05T07:50:00.584Z,1.2
2023-02-05T07:51:00.589Z,1.2
2023-02-05T07:52:00.597Z,1.2
2023-02-05T07:53:00.591Z,1.2
2023-02-05T07:54:00.579Z,1.3
2023-02-05T07:55:00.585Z,1.3
2023-02-05T07:56:00.613Z,1.3
2023-02-05T07:57:00.579Z,1.3
2023-02-05T07:58:00.603Z,1.4
2023-02-05T07:59:00.578Z,1.4
2023-02-05T08:00:00.599Z,1.4
2023-02-05T08:01:00.812Z,1.4
2023-02-05T08:02:00.596Z,1.4
2023-02-05T08:03:00.602Z,1.4
2023-02-05T08:04:00.741Z,1.5
2023-02-05T08:05:00.608Z,1.5
2023-02-05T08:06:00.599Z,1.5
2023-02-05T08:07:00.601Z,1.5
2023-02-05T08:08:00.605Z,1.6
2023-02-05T08:09:00.589Z,1.6
2023-02-05T08:10:00.597Z,1.6
2023-02-05T08:11:00.595Z,1.6
2023-02-05T08:12:00.605Z,1.6
2023-02-05T08:13:00.615Z,1.7
2023-02-05T08:14:00.617Z,1.8
2023-02-05T08:15:00.607Z,1.8
2023-02-05T08:16:00.680Z,1.8
2023-02-05T08:17:00.600Z,1.8
2023-02-05T08:18:00.602Z,1.9
2023-02-05T08:19:00.623Z,1.9
2023-02-05T08:20:00.604Z,1.9
2023-02-05T08:21:00.619Z,2
2023-02-05T08:22:00.619Z,2.1
2023-02-05T08:23:00.624Z,2.1
2023-02-05T08:24:00.628Z,2.1
2023-02-05T08:25:00.637Z,2.1
2023-02-05T08:26:00.623Z,2.2
2023-02-05T08:27:00.649Z,2.2
2023-02-05T08:28:00.710Z,2.2
2023-02-05T08:29:00.630Z,2.3
2023-02-05T08:30:00.630Z,2.4
2023-02-05T08:31:00.686Z,2.4
2023-02-05T08:32:00.622Z,2.4
2023-02-05T08:33:00.624Z,2.5
2023-02-05T08:34:00.641Z,2.5
2023-02-05T08:35:00.638Z,2.6
2023-02-05T08:36:00.635Z,2.6
2023-02-05T08:37:00.642Z,2.6
2023-02-05T08:38:00.655Z,2.7
2023-02-05T08:39:00.679Z,2.7
2023-02-05T08:40:00.642Z,2.8
2023-02-05T08:41:00.651Z,2.8
2023-02-05T08:42:00.631Z,2.8
2023-02-05T08:43:00.651Z,2.9
2023-02-05T08:44:00.652Z,2.9
2023-02-05T08:45:00.669Z,2.9
2023-02-05T08:46:00.704Z,3
2023-02-05T08:47:00.677Z,3.1
2023-02-05T08:48:00.630Z,3.1
2023-02-05T08:49:00.640Z,3.2
2023-02-05T08:50:00.679Z,3.2
2023-02-05T08:51:00.658Z,3.2
2023-02-05T08:52:00.633Z,3.3
2023-02-05T08:53:00.671Z,3.4
2023-02-05T08:54:00.636Z,3.4
2023-02-05T08:55:00.672Z,3.4
2023-02-05T08:56:00.644Z,3.4
2023-02-05T08:57:00.669Z,3.4
2023-02-05T08:58:00.667Z,3.4
2023-02-05T08:59:00.642Z,3.5
2023-02-05T09:00:00.683Z,3.5
2023-02-05T09:01:00.691Z,3.5
2023-02-05T09:02:00.653Z,3.5
2023-02-05T09:03:00.650Z,3.5
2023-02-05T09:04:00.679Z,3.5
2023-02-05T09:05:08.461Z,3.5
2023-02-05T09:06:00.680Z,3.5
2023-02-05T09:07:00.658Z,3.5
2023-02-05T09:08:00.690Z,3.5
2023-02-05T09:09:00.660Z,3.5
2023-02-05T09:10:00.686Z,3.5
2023-02-05T09:11:00.657Z,3.5
2023-02-05T09:12:00.674Z,3.5
2023-02-05T09:13:00.677Z,3.5
2023-02-05T09:14:00.675Z,3.5
2023-02-05T09:15:00.707Z,3.5
2023-02-05T09:16:00.658Z,3.5
2023-02-05T09:17:00.681Z,3.5
2023-02-05T09:18:00.667Z,3.5
2023-02-05T09:19:00.660Z,3.6
2023-02-05T09:20:00.709Z,3.6
2023-02-05T09:21:00.668Z,3.6
2023-02-05T09:22:00.666Z,3.6
2023-02-05T09:23:00.677Z,3.6
2023-02-05T09:24:00.672Z,3.6
2023-02-05T09:25:00.719Z,3.7
2023-02-05T09:26:00.673Z,3.8
2023-02-05T09:27:00.688Z,3.8
2023-02-05T09:28:00.764Z,3.8
2023-02-05T09:29:00.695Z,3.8
2023-02-05T09:30:00.704Z,3.8
2023-02-05T09:31:00.883Z,3.9
2023-02-05T09:32:00.694Z,3.9
2023-02-05T09:33:00.682Z,3.9
2023-02-05T09:34:00.680Z,4
2023-02-05T09:35:00.720Z,4.1
2023-02-05T09:36:00.715Z,4.1
2023-02-05T09:37:00.686Z,4.1
2023-02-05T09:38:00.687Z,4.1
2023-02-05T09:39:14.108Z,4.1
2023-02-05T09:40:21.659Z,4.2
2023-02-05T09:41:00.701Z,4.2
2023-02-05T09:42:00.695Z,4.2
2023-02-05T09:43:00.733Z,4.2
2023-02-05T09:44:00.746Z,4.3
2023-02-05T09:45:00.720Z,4.3
2023-02-05T09:46:00.745Z,4.4
2023-02-05T09:47:00.710Z,4.3
2023-02-05T09:48:00.713Z,4.3
2023-02-05T09:49:00.712Z,4.4
2023-02-05T09:50:00.744Z,4.4
2023-02-05T09:51:00.720Z,4.3
2023-02-05T09:52:00.699Z,4.3
2023-02-05T09:53:00.704Z,4.3
2023-02-05T09:54:00.704Z,4.3
2023-02-05T09:55:00.725Z,4.3
2023-02-05T09:56:00.723Z,4.3
2023-02-05T09:57:00.713Z,4.2
2023-02-05T09:58:00.706Z,4.2
2023-02-05T09:59:00.724Z,4.3
2023-02-05T10:00:00.736Z,4.3
2023-02-05T10:01:00.783Z,4.3
2023-02-05T10:02:00.706Z,4.3
2023-02-05T10:03:00.720Z,4.2
2023-02-05T10:04:00.770Z,4.3
2023-02-05T10:05:00.753Z,4.3
2023-02-05T10:06:00.668Z,4.2
2023-02-05T10:07:00.654Z,4.2
2023-02-05T10:08:00.608Z,4.3
2023-02-05T10:09:00.580Z,4.2
2023-02-05T10:10:00.586Z,4.2
2023-02-05T10:11:00.549Z,4.2
2023-02-05T10:12:00.504Z,4.3
2023-02-05T10:13:00.480Z,4.3
2023-02-05T10:14:00.452Z,4.3
2023-02-05T10:15:00.439Z,4.3
2023-02-05T10:16:00.429Z,4.2
2023-02-05T10:17:00.346Z,4.2
2023-02-05T10:18:00.437Z,4.3
2023-02-05T10:19:00.291Z,4.2
2023-02-05T10:20:00.305Z,4.2
2023-02-05T10:21:00.319Z,4.2
2023-02-05T10:22:00.292Z,4.3
2023-02-05T10:23:00.297Z,4.3
2023-02-05T10:24:00.310Z,4.3
2023-02-05T10:25:00.294Z,4.4
2023-02-05T10:26:00.334Z,4.4
2023-02-05T10:27:00.320Z,4.4
2023-02-05T10:28:00.342Z,4.4
2023-02-05T10:29:00.326Z,4.4
2023-02-05T10:30:00.304Z,4.3
2023-02-05T10:31:00.500Z,4.3
2023-02-05T10:32:00.342Z,4.3
2023-02-05T10:33:00.337Z,4.2
2023-02-05T10:34:00.326Z,4.2
2023-02-05T10:35:00.316Z,4.2
2023-02-05T10:36:00.338Z,4.2
2023-02-05T10:37:00.318Z,4.2
2023-02-05T10:38:00.312Z,4.2
2023-02-05T10:39:00.312Z,4.2
2023-02-05T10:40:00.314Z,4.2
2023-02-05T10:41:00.707Z,4.2
2023-02-05T10:42:00.312Z,4.1
2023-02-05T10:43:00.319Z,4.1
2023-02-05T10:44:00.339Z,4.1
2023-02-05T10:45:00.320Z,4.1
2023-02-05T10:46:00.511Z,4.1
2023-02-05T10:47:00.317Z,4.1
2023-02-05T10:48:00.321Z,4.1
2023-02-05T10:49:00.377Z,4.1
2023-02-05T10:50:00.339Z,4.1
2023-02-05T10:51:00.346Z,4.1
2023-02-05T10:52:00.340Z,4.1
2023-02-05T10:53:00.324Z,4.2
2023-02-05T10:54:00.353Z,4.1
2023-02-05T10:55:00.328Z,4.1
2023-02-05T10:56:00.351Z,4.1
2023-02-05T10:57:00.330Z,4.1
2023-02-05T10:58:00.352Z,4.2
2023-02-05T10:59:00.367Z,4.2
2023-02-05T11:00:00.448Z,4.2
2023-02-05T11:01:00.359Z,4.2
2023-02-05T11:02:00.378Z,4.2
2023-02-05T11:03:00.391Z,4.2
2023-02-05T11:04:00.354Z,4.2
2023-02-05T11:05:00.340Z,4.2
2023-02-05T11:06:00.357Z,4.2
2023-02-05T11:07:00.338Z,4.3
2023-02-05T11:08:00.343Z,4.3
2023-02-05T11:09:00.345Z,4.3
2023-02-05T11:10:00.365Z,4.3
2023-02-05T11:11:00.373Z,4.3
2023-02-05T11:12:00.350Z,4.4
2023-02-05T11:13:00.349Z,4.4
2023-02-05T11:14:00.369Z,4.4
2023-02-05T11:15:00.365Z,4.4
2023-02-05T11:16:00.443Z,4.5
2023-02-05T11:17:00.365Z,4.5
2023-02-05T11:18:00.353Z,4.4
2023-02-05T11:19:00.347Z,4.5
2023-02-05T11:20:00.375Z,4.4
2023-02-05T11:21:00.376Z,4.4
2023-02-05T11:22:00.352Z,4.4
2023-02-05T11:23:00.743Z,4.4
2023-02-05T11:24:00.357Z,4.3
2023-02-05T11:25:00.382Z,4.2
2023-02-05T11:26:00.362Z,4.2
2023-02-05T11:27:00.374Z,4.1
2023-02-05T11:28:00.508Z,4.1
2023-02-05T11:29:00.378Z,4.1
2023-02-05T11:30:00.387Z,4
2023-02-05T11:31:00.811Z,4
2023-02-05T11:32:00.399Z,4
2023-02-05T11:33:00.361Z,4
2023-02-05T11:34:00.382Z,4.1
2023-02-05T11:35:00.389Z,4.1
2023-02-05T11:36:00.388Z,4.1
2023-02-05T11:37:00.387Z,4.1
2023-02-05T11:38:00.370Z,4.1
2023-02-05T11:39:00.373Z,4.2
2023-02-05T11:40:00.513Z,4.2
2023-02-05T11:41:00.483Z,4.2
2023-02-05T11:42:00.373Z,4.1
2023-02-05T11:43:00.374Z,4.1
2023-02-05T11:44:00.395Z,4.2
2023-02-05T11:45:00.416Z,4.2
2023-02-05T11:46:00.375Z,4.2
2023-02-05T11:47:00.380Z,4.2
2023-02-05T11:48:00.399Z,4.2
2023-02-05T11:49:00.389Z,4.2
2023-02-05T11:50:00.404Z,4.2
2023-02-05T11:51:00.398Z,4.1
2023-02-05T11:52:00.397Z,4.1
2023-02-05T11:53:00.382Z,4.1
2023-02-05T11:54:00.404Z,4
2023-02-05T11:55:00.427Z,3.9
2023-02-05T11:56:00.408Z,3.9
2023-02-05T11:57:00.456Z,3.9
2023-02-05T11:58:00.394Z,3.9
2023-02-05T11:59:00.475Z,3.9
2023-02-05T12:00:00.587Z,3.9
2023-02-05T12:01:00.395Z,3.9
2023-02-05T12:02:00.533Z,3.9
2023-02-05T12:03:00.469Z,3.9
2023-02-05T12:04:00.496Z,3.9
2023-02-05T12:05:00.587Z,3.9
2023-02-05T12:06:00.550Z,3.9
2023-02-05T12:07:00.476Z,3.9
2023-02-05T12:08:00.503Z,4
2023-02-05T12:09:00.540Z,3.9
2023-02-05T12:10:00.632Z,3.9
2023-02-05T12:11:00.545Z,3.9
2023-02-05T12:12:00.579Z,3.9
2023-02-05T12:13:00.547Z,3.8
2023-02-05T12:14:00.536Z,3.8
2023-02-05T12:15:00.568Z,3.7
2023-02-05T12:16:00.539Z,3.7
2023-02-05T12:17:00.591Z,3.7
2023-02-05T12:18:00.527Z,3.7
2023-02-05T12:19:00.503Z,3.8
2023-02-05T12:20:00.580Z,3.8
2023-02-05T12:21:00.497Z,3.7
2023-02-05T12:22:00.578Z,3.8
2023-02-05T12:23:00.521Z,3.8
2023-02-05T12:24:00.536Z,3.8
2023-02-05T12:25:00.538Z,3.7
2023-02-05T12:26:00.466Z,3.7
2023-02-05T12:27:00.550Z,3.6
2023-02-05T12:28:00.607Z,3.6
2023-02-05T12:29:00.436Z,3.6
2023-02-05T12:30:00.479Z,3.6
2023-02-05T12:31:00.440Z,3.6
2023-02-05T12:32:00.437Z,3.6
2023-02-05T12:33:00.441Z,3.6
2023-02-05T12:34:00.463Z,3.6
2023-02-05T12:35:00.479Z,3.5
2023-02-05T12:36:00.455Z,3.5
2023-02-05T12:37:00.435Z,3.4
2023-02-05T12:38:00.436Z,3.4
2023-02-05T12:39:02.924Z,3.4
2023-02-05T12:40:00.521Z,3.4
2023-02-05T12:41:00.432Z,3.4
2023-02-05T12:42:00.453Z,3.5
2023-02-05T12:43:00.450Z,3.5
2023-02-05T12:44:00.441Z,3.6
2023-02-05T12:45:00.462Z,3.6
2023-02-05T12:46:00.622Z,3.6
2023-02-05T12:47:00.456Z,3.6
2023-02-05T12:48:00.438Z,3.6
2023-02-05T12:49:00.441Z,3.6
2023-02-05T12:50:00.474Z,3.6
2023-02-05T12:51:00.466Z,3.7
2023-02-05T12:52:00.451Z,3.7
2023-02-05T12:53:00.449Z,3.6
2023-02-05T12:54:00.463Z,3.6
2023-02-05T12:55:00.479Z,3.6
2023-02-05T12:56:00.468Z,3.6
2023-02-05T12:57:00.447Z,3.6
2023-02-05T12:58:00.453Z,3.6
2023-02-05T12:59:00.451Z,3.6
2023-02-05T13:00:00.495Z,3.6
2023-02-05T13:01:00.534Z,3.6
2023-02-05T13:02:00.477Z,3.6
2023-02-05T13:03:00.472Z,3.6
2023-02-05T13:04:01.536Z,3.6
2023-02-05T13:05:00.499Z,3.6
2023-02-05T13:06:00.460Z,3.6
2023-02-05T13:07:00.472Z,3.6
2023-02-05T13:08:00.492Z,3.6
2023-02-05T13:09:00.473Z,3.6
2023-02-05T13:10:01.492Z,3.6
2023-02-05T13:11:00.487Z,3.6
2023-02-05T13:12:00.476Z,3.6
2023-02-05T13:13:00.561Z,3.6
2023-02-05T13:14:00.496Z,3.5
2023-02-05T13:15:00.522Z,3.5
2023-02-05T13:16:00.508Z,3.4
2023-02-05T13:17:00.501Z,3.4
2023-02-05T13:18:00.496Z,3.4
2023-02-05T13:19:00.501Z,3.4
2023-02-05T13:20:00.564Z,3.4
2023-02-05T13:21:00.483Z,3.4
2023-02-05T13:22:00.499Z,3.4
2023-02-05T13:23:00.486Z,3.4
2023-02-05T13:24:00.524Z,3.4
2023-02-05T13:25:00.553Z,3.4
2023-02-05T13:26:00.483Z,3.4
2023-02-05T13:27:00.502Z,3.4
2023-02-05T13:28:00.522Z,3.4
2023-02-05T13:29:00.518Z,3.4
2023-02-05T13:30:00.679Z,3.4
2023-02-05T13:31:00.620Z,3.3
2023-02-05T13:32:07.308Z,3.3
2023-02-05T13:33:00.527Z,3.2
2023-02-05T13:34:00.524Z,3.2
2023-02-05T13:35:00.546Z,3.2
2023-02-05T13:36:00.510Z,3.2
2023-02-05T13:37:00.509Z,3.2
2023-02-05T13:38:00.501Z,3.2
2023-02-05T13:39:00.553Z,3.2
2023-02-05T13:40:00.558Z,3.2
2023-02-05T13:41:00.521Z,3.2
2023-02-05T13:42:00.532Z,3.2
2023-02-05T13:43:00.516Z,3.2
2023-02-05T13:44:00.512Z,3.2
2023-02-05T13:45:00.581Z,3.2
2023-02-05T13:46:00.537Z,3.2
2023-02-05T13:47:00.509Z,3.1
2023-02-05T13:48:00.533Z,3.1
2023-02-05T13:49:00.520Z,3.1
2023-02-05T13:50:00.554Z,3.2